Time;durP1;ratioP1;P1;durP2;ratioP2;P2;SDS_P1;SDS_P2;PMS_P1;PMS_P2;Temp;Humidity;BMP_temperature;BMP_pressure;BME280_temperature;BME280_humidity;BME280_pressure;Samples;Min_cycle;Max_cycle;Signal;HPM_P1;HPM_P2
2022/12/28 06:57:24;;;;;;;0.50;0.50;;;4.40;56.00;;;;;;6069407;22;2164085;-78
2022/12/28 06:59:51;;;;;;;0.43;0.43;;;4.30;56.50;;;;;;6123096;23;20368;-79
2022/12/28 07:02:18;;;;;;;0.50;0.50;;;4.20;57.10;;;;;;6121989;23;20415;-80
2022/12/28 07:04:45;;;;;;;0.50;0.50;;;4.30;56.90;;;;;;6120183;23;20379;-80
2022/12/28 07:07:12;;;;;;;0.50;0.50;;;4.30;56.50;;;;;;6121885;23;20391;-80
2022/12/28 07:09:39;;;;;;;0.60;0.60;;;4.30;56.90;;;;;;6120387;23;20704;-80
2022/12/28 07:12:06;;;;;;;0.60;0.60;;;4.30;57.20;;;;;;6121504;23;20387;-80
2022/12/28 07:14:33;;;;;;;0.60;0.60;;;4.30;56.60;;;;;;6120819;23;20422;-80
2022/12/28 07:17:00;;;;;;;0.50;0.50;;;4.40;56.50;;;;;;6122076;23;20372;-80
2022/12/28 07:19:27;;;;;;;0.60;0.60;;;4.40;56.50;;;;;;6122506;23;20383;-80
2022/12/28 07:21:54;;;;;;;0.70;0.40;;;4.40;56.40;;;;;;6121374;23;20371;-80
2022/12/28 07:24:21;;;;;;;0.50;0.50;;;4.40;56.00;;;;;;6121560;23;20383;-80
2022/12/28 07:26:48;;;;;;;0.50;0.50;;;4.50;55.90;;;;;;6111859;23;20395;-80
2022/12/28 07:29:15;;;;;;;0.52;0.52;;;4.50;56.00;;;;;;6118200;23;20375;-80
2022/12/28 07:31:42;;;;;;;0.50;0.50;;;4.40;56.30;;;;;;6121535;23;21108;-81
2022/12/28 07:34:13;;;;;;;0.50;0.50;;;4.40;56.40;;;;;;6119610;23;20422;-81
2022/12/28 07:36:40;;;;;;;0.50;0.50;;;4.50;55.70;;;;;;6120080;23;20426;-81
2022/12/28 07:39:07;;;;;;;0.50;0.50;;;4.60;56.30;;;;;;6121236;23;20387;-80
2022/12/28 07:41:37;;;;;;;0.43;0.43;;;4.60;56.50;;;;;;6120025;23;20379;-80
2022/12/28 07:44:04;;;;;;;0.50;0.50;;;4.60;55.20;;;;;;6122083;23;20425;-79
2022/12/28 07:46:33;;;;;;;0.57;0.57;;;4.70;55.00;;;;;;6121571;23;20372;-80
2022/12/28 07:49:00;;;;;;;0.60;0.60;;;4.70;55.10;;;;;;6121034;23;20480;-80
2022/12/28 07:51:30;;;;;;;0.50;0.50;;;4.70;55.90;;;;;;6120752;23;20383;-79
2022/12/28 07:53:58;;;;;;;0.50;0.50;;;4.80;55.50;;;;;;6120182;23;20421;-80
2022/12/28 07:56:26;;;;;;;0.50;0.50;;;4.80;55.30;;;;;;6123469;23;20442;-80
2022/12/28 07:58:57;;;;;;;1.00;0.50;;;4.70;55.70;;;;;;6149712;23;20754;-79
2022/12/28 08:01:26;;;;;;;0.40;0.40;;;4.80;55.00;;;;;;6124110;23;20467;-81
2022/12/28 08:03:58;;;;;;;0.50;0.50;;;4.80;55.00;;;;;;6123122;23;20424;-81
2022/12/28 08:06:26;;;;;;;0.60;0.60;;;4.90;55.00;;;;;;6151625;23;20440;-80
2022/12/28 08:08:57;;;;;;;0.50;0.50;;;4.80;55.90;;;;;;6123879;23;20437;-81
2022/12/28 08:11:29;;;;;;;0.52;0.52;;;4.80;55.40;;;;;;6151599;23;20428;-80
2022/12/28 08:13:57;;;;;;;0.50;0.50;;;4.90;55.00;;;;;;6125908;23;20429;-81
2022/12/28 08:16:27;;;;;;;0.55;0.50;;;5.00;55.10;;;;;;6125811;23;20427;-81
2022/12/28 08:18:54;;;;;;;0.50;0.50;;;5.00;55.10;;;;;;6151219;23;20378;-81
2022/12/28 08:21:28;;;;;;;0.68;0.68;;;5.00;55.00;;;;;;6124283;23;20873;-81
2022/12/28 08:23:55;;;;;;;0.57;0.57;;;5.00;55.10;;;;;;6125042;23;20819;-81
2022/12/28 08:26:25;;;;;;;0.70;0.50;;;5.00;55.40;;;;;;6126536;23;20515;-81
2022/12/28 08:28:54;;;;;;;0.50;0.50;;;5.00;55.10;;;;;;6151352;23;20498;-80
2022/12/28 08:31:24;;;;;;;0.50;0.50;;;5.00;55.10;;;;;;6126732;23;20430;-82
2022/12/28 08:33:53;;;;;;;0.50;0.50;;;5.10;55.10;;;;;;6151231;23;20447;-81
2022/12/28 08:36:21;;;;;;;0.60;0.60;;;5.00;56.50;;;;;;6126519;23;20398;-81
2022/12/28 08:38:48;;;;;;;0.50;0.50;;;5.00;55.10;;;;;;6151259;23;20378;-81
2022/12/28 08:41:18;;;;;;;0.50;0.50;;;5.00;55.30;;;;;;6151751;23;20409;-80
2022/12/28 08:43:46;;;;;;;0.50;0.50;;;5.00;55.20;;;;;;6125448;23;20846;-81
2022/12/28 08:46:21;;;;;;;0.50;0.50;;;5.10;55.10;;;;;;6126302;23;20382;-81
2022/12/28 08:48:50;;;;;;;0.60;0.60;;;5.10;54.80;;;;;;6124836;23;20386;-81
2022/12/28 08:51:18;;;;;;;0.67;0.67;;;5.20;55.10;;;;;;6126485;23;20412;-80
2022/12/28 08:53:46;;;;;;;0.63;0.63;;;5.30;54.70;;;;;;6125240;23;20440;-81
2022/12/28 08:56:28;;;;;;;0.90;0.80;;;5.30;55.10;;;;;;6151659;23;20401;-81
2022/12/28 08:58:56;;;;;;;0.70;0.70;;;5.30;54.90;;;;;;6125732;23;20463;-81
2022/12/28 09:01:29;;;;;;;0.70;0.70;;;5.30;55.20;;;;;;6126207;23;20378;-81
2022/12/28 09:03:58;;;;;;;0.60;0.60;;;5.40;53.90;;;;;;6125530;23;20448;-81
2022/12/28 09:06:36;;;;;;;0.55;0.55;;;5.50;53.30;;;;;;6126073;23;20458;-81
2022/12/28 09:09:09;;;;;;;0.70;0.70;;;5.60;53.90;;;;;;6151238;23;20378;-81
2022/12/28 09:11:38;;;;;;;0.60;0.60;;;5.60;54.10;;;;;;6125996;23;20455;-81
2022/12/28 09:14:08;;;;;;;0.57;0.50;;;5.60;53.90;;;;;;6126080;23;20370;-81
2022/12/28 09:16:37;;;;;;;0.63;0.63;;;5.70;53.20;;;;;;6128091;23;20420;-81
2022/12/28 09:19:06;;;;;;;0.70;0.70;;;5.70;53.10;;;;;;6127075;23;20366;-80
2022/12/28 09:21:35;;;;;;;0.70;0.70;;;5.70;52.90;;;;;;6153752;23;20387;-82
2022/12/28 09:24:03;;;;;;;0.70;0.70;;;5.80;52.70;;;;;;6126856;23;20773;-82
2022/12/28 09:26:33;;;;;;;0.80;0.80;;;5.80;52.90;;;;;;6128092;23;20378;-81
2022/12/28 09:29:02;;;;;;;0.68;0.68;;;5.90;52.70;;;;;;6126282;23;20378;-81
2022/12/28 09:31:31;;;;;;;0.70;0.70;;;6.00;53.20;;;;;;6128021;23;20378;-81
2022/12/28 09:34:01;;;;;;;0.70;0.70;;;6.00;52.70;;;;;;6126535;23;20384;-81
2022/12/28 09:36:48;;;;;;;0.82;0.80;;;6.10;51.50;;;;;;6130875;23;20831;-81
2022/12/28 09:39:18;;;;;;;0.70;0.70;;;6.10;52.00;;;;;;6151556;23;20429;-81
2022/12/28 09:41:49;;;;;;;0.60;0.60;;;6.20;52.80;;;;;;6126984;23;20439;-81
2022/12/28 09:44:29;;;;;;;0.90;0.90;;;6.30;52.00;;;;;;6127477;23;20374;-81
2022/12/28 09:47:16;;;;;;;0.65;0.65;;;6.30;51.90;;;;;;6151962;23;20382;-81
2022/12/28 09:49:43;;;;;;;0.82;0.77;;;6.50;51.90;;;;;;6126263;23;20409;-80
2022/12/28 09:52:13;;;;;;;0.80;0.80;;;6.60;51.70;;;;;;6126088;23;20374;-81
2022/12/28 09:54:40;;;;;;;0.70;0.60;;;6.80;52.90;;;;;;6153276;23;20450;-81
2022/12/28 09:57:14;;;;;;;0.60;0.60;;;7.10;51.20;;;;;;6126188;23;20405;-81
2022/12/28 09:59:41;;;;;;;0.60;0.60;;;7.40;50.00;;;;;;6152913;23;20436;-82
2022/12/28 10:02:29;;;;;;;0.90;0.90;;;7.60;50.10;;;;;;6126607;23;20676;-81
2022/12/28 10:04:56;;;;;;;0.80;0.80;;;7.80;48.90;;;;;;6126360;23;20382;-81
2022/12/28 10:07:24;;;;;;;0.70;0.70;;;7.90;49.30;;;;;;6102842;23;20378;-81
2022/12/28 10:09:51;;;;;;;1.15;0.70;;;8.10;48.60;;;;;;6126242;23;20409;-80
2022/12/28 10:12:21;;;;;;;0.80;0.70;;;8.20;49.10;;;;;;6153276;23;20398;-81
2022/12/28 10:14:48;;;;;;;0.70;0.70;;;8.20;49.80;;;;;;6152896;23;20750;-81
2022/12/28 10:17:26;;;;;;;0.60;0.60;;;8.10;48.90;;;;;;6149248;23;20374;-81
2022/12/28 10:19:56;;;;;;;1.10;0.60;;;8.00;48.00;;;;;;6150091;23;20389;-80
2022/12/28 10:22:29;;;;;;;0.60;0.60;;;8.00;48.70;;;;;;6127780;23;20374;-81
2022/12/28 10:24:56;;;;;;;0.60;0.60;;;8.00;48.20;;;;;;6126264;23;20405;-80
2022/12/28 10:27:28;;;;;;;0.63;0.60;;;7.90;48.30;;;;;;6127425;23;20362;-81
2022/12/28 10:29:58;;;;;;;0.52;0.52;;;8.00;48.20;;;;;;6126804;23;20370;-80
2022/12/28 10:32:25;;;;;;;0.90;0.60;;;7.90;48.10;;;;;;6126379;23;20746;-81
2022/12/28 10:34:59;;;;;;;0.55;0.55;;;7.80;47.70;;;;;;6127379;23;20370;-81
2022/12/28 10:37:30;;;;;;;0.50;0.50;;;7.80;48.20;;;;;;6124696;23;20370;-81
2022/12/28 10:40:00;;;;;;;0.77;0.77;;;7.80;48.70;;;;;;6126316;23;20438;-81
2022/12/28 10:42:37;;;;;;;0.83;0.50;;;7.80;48.80;;;;;;6124817;23;20452;-81
2022/12/28 10:45:15;;;;;;;0.60;0.60;;;8.00;47.30;;;;;;6150609;23;20386;-81
2022/12/28 10:47:47;;;;;;;0.50;0.50;;;8.10;48.00;;;;;;6152121;23;20378;-80
2022/12/28 10:50:50;;;;;;;0.50;0.50;;;8.20;47.50;;;;;;6123184;23;20402;-80
2022/12/28 10:53:42;;;;;;;0.70;0.70;;;8.50;47.70;;;;;;6124687;23;20386;-81
2022/12/28 10:56:12;;;;;;;0.70;0.50;;;8.80;46.70;;;;;;6125448;23;20755;-81
2022/12/28 10:58:51;;;;;;;0.77;0.60;;;9.00;47.50;;;;;;6121413;23;20375;-81
2022/12/28 11:01:25;;;;;;;0.50;0.50;;;9.10;46.40;;;;;;6122127;23;20749;-80
2022/12/28 11:03:55;;;;;;;0.73;0.60;;;9.30;46.60;;;;;;6121718;23;20371;-81
2022/12/28 11:06:24;;;;;;;0.75;0.60;;;9.50;45.90;;;;;;6120701;23;20379;-80
2022/12/28 11:09:19;;;;;;;0.50;0.50;;;9.70;45.60;;;;;;6121801;23;20707;-81
2022/12/28 11:11:47;;;;;;;0.50;0.50;;;9.80;45.90;;;;;;6120921;23;20443;-81
2022/12/28 11:14:24;;;;;;;0.50;0.50;;;10.00;45.10;;;;;;6097401;23;20372;-81
2022/12/28 11:16:52;;;;;;;0.73;0.60;;;10.10;45.70;;;;;;6120775;23;21170;-80
2022/12/28 11:19:21;;;;;;;0.45;0.45;;;10.10;44.50;;;;;;6121734;23;20430;-81
2022/12/28 11:21:48;;;;;;;0.50;0.50;;;10.10;44.80;;;;;;6120841;23;20376;-81
2022/12/28 11:24:18;;;;;;;0.40;0.40;;;10.20;44.10;;;;;;6119765;23;20380;-81
2022/12/28 11:26:48;;;;;;;0.43;0.43;;;10.10;45.30;;;;;;6120381;23;20434;-81
2022/12/28 11:29:17;;;;;;;0.60;0.50;;;10.20;45.00;;;;;;6120637;23;20383;-81
2022/12/28 11:32:00;;;;;;;0.40;0.40;;;10.30;44.80;;;;;;6118920;23;20380;-81
2022/12/28 11:34:29;;;;;;;0.50;0.50;;;10.40;44.10;;;;;;6121610;23;20376;-80
2022/12/28 11:36:57;;;;;;;1.13;0.50;;;10.60;43.90;;;;;;6144658;23;20436;-82
2022/12/28 11:39:24;;;;;;;0.50;0.50;;;10.70;43.80;;;;;;6121270;23;20434;-81
2022/12/28 11:41:52;;;;;;;0.50;0.50;;;10.90;44.40;;;;;;6120453;23;20387;-81
2022/12/28 11:44:39;;;;;;;0.50;0.50;;;11.00;43.40;;;;;;6120535;23;20380;-81
2022/12/28 11:47:15;;;;;;;0.30;0.30;;;11.20;44.00;;;;;;6121187;23;20439;-81
2022/12/28 11:49:43;;;;;;;0.40;0.40;;;11.40;42.30;;;;;;6120501;23;20467;-81
2022/12/28 11:52:16;;;;;;;0.40;0.40;;;11.50;43.00;;;;;;6121032;23;20848;-81
2022/12/28 11:54:58;;;;;;;0.50;0.50;;;11.60;43.10;;;;;;6120539;23;20386;-81
2022/12/28 11:57:39;;;;;;;0.40;0.40;;;11.70;42.20;;;;;;6137249;23;20389;-81
2022/12/28 12:00:18;;;;;;;0.98;0.40;;;11.90;42.50;;;;;;6150946;23;20425;-82
2022/12/28 12:02:59;;;;;;;0.40;0.40;;;11.90;43.80;;;;;;6126335;23;20389;-81
2022/12/28 12:05:36;;;;;;;0.40;0.40;;;12.00;43.40;;;;;;6126162;23;20374;-81
2022/12/28 12:08:23;;;;;;;0.60;0.50;;;12.20;43.10;;;;;;6125272;23;20382;-81
2022/12/28 12:11:20;;;;;;;0.40;0.40;;;12.20;42.90;;;;;;6124692;23;20374;-81
2022/12/28 12:13:48;;;;;;;0.50;0.50;;;12.40;41.90;;;;;;6125691;23;20405;-81
2022/12/28 12:16:24;;;;;;;0.40;0.40;;;12.50;42.30;;;;;;6151941;23;20432;-81
2022/12/28 12:18:54;;;;;;;0.57;0.57;;;12.50;43.00;;;;;;6126379;23;20382;-79
2022/12/28 12:21:30;;;;;;;0.40;0.40;;;12.60;44.50;;;;;;6126471;23;20436;-82
2022/12/28 12:24:25;;;;;;;0.60;0.50;;;12.80;43.80;;;;;;6124168;23;20400;-79
2022/12/28 12:26:58;;;;;;;0.60;0.60;;;12.90;44.60;;;;;;6124335;23;20398;-81
2022/12/28 12:29:41;;;;;;;0.40;0.40;;;13.10;43.40;;;;;;6125332;23;20754;-81
2022/12/28 12:32:14;;;;;;;0.50;0.50;;;13.20;41.30;;;;;;6123485;23;20378;-81
2022/12/28 12:34:53;;;;;;;0.60;0.40;;;13.00;42.50;;;;;;6151129;23;20715;-81
2022/12/28 12:37:44;;;;;;;0.50;0.50;;;13.00;40.80;;;;;;6124446;23;20687;-81
2022/12/28 12:40:45;;;;;;;0.52;0.52;;;12.90;42.50;;;;;;6142162;23;20766;-81
2022/12/28 12:43:33;;;;;;;0.43;0.43;;;12.90;41.80;;;;;;6124477;23;20385;-81
2022/12/28 12:46:12;;;;;;;0.52;0.50;;;12.80;42.70;;;;;;6124887;23;20405;-80
2022/12/28 12:48:44;;;;;;;0.60;0.60;;;12.80;43.20;;;;;;6127065;23;20401;-80
2022/12/28 12:51:29;;;;;;;0.40;0.40;;;12.80;43.20;;;;;;6126574;23;20377;-81
2022/12/28 12:54:26;;;;;;;0.50;0.50;;;12.70;43.00;;;;;;6127213;23;20457;-80
2022/12/28 12:57:06;;;;;;;0.75;0.75;;;12.60;45.30;;;;;;6151907;23;20390;-80
2022/12/28 12:59:38;;;;;;;0.90;0.60;;;12.40;44.60;;;;;;6127208;23;20762;-81
2022/12/28 13:02:26;;;;;;;0.70;0.70;;;12.10;45.10;;;;;;6153519;23;20373;-81
2022/12/28 13:04:53;;;;;;;0.60;0.60;;;12.10;46.40;;;;;;6152525;23;20744;-80
2022/12/28 13:07:24;;;;;;;0.52;0.52;;;12.30;45.90;;;;;;6127580;23;20482;-80
2022/12/28 13:09:54;;;;;;;0.60;0.60;;;12.60;45.50;;;;;;6150682;23;20378;-80
2022/12/28 13:12:23;;;;;;;0.60;0.60;;;12.90;46.30;;;;;;6126335;23;20382;-81
2022/12/28 13:14:57;;;;;;;0.60;0.60;;;13.10;45.40;;;;;;6126204;23;20393;-80
2022/12/28 13:17:25;;;;;;;0.60;0.60;;;13.30;45.40;;;;;;6152072;23;20437;-80
2022/12/28 13:20:16;;;;;;;0.60;0.60;;;13.40;45.80;;;;;;6125800;23;20374;-80
2022/12/28 13:22:46;;;;;;;0.70;0.70;;;13.40;46.30;;;;;;6151126;23;20382;-81
2022/12/28 13:25:26;;;;;;;0.70;0.70;;;13.50;46.70;;;;;;6152267;23;20842;-80
2022/12/28 13:27:54;;;;;;;0.70;0.70;;;13.50;46.60;;;;;;6125589;23;20378;-80
2022/12/28 13:30:23;;;;;;;0.70;0.63;;;13.60;47.00;;;;;;6152490;23;20482;-80
2022/12/28 13:32:58;;;;;;;0.80;0.80;;;13.70;47.50;;;;;;6126655;23;20750;-81
2022/12/28 13:35:28;;;;;;;1.00;0.90;;;13.60;48.40;;;;;;6126912;23;20417;-80
2022/12/28 13:38:07;;;;;;;0.70;0.70;;;13.70;48.50;;;;;;6150810;23;20377;-81
2022/12/28 13:40:37;;;;;;;0.90;0.90;;;13.80;48.60;;;;;;6122549;23;20505;-80
2022/12/28 13:43:04;;;;;;;1.95;1.85;;;13.60;50.60;;;;;;6126668;23;20433;-81
2022/12/28 13:45:32;;;;;;;1.67;1.58;;;12.90;53.80;;;;;;6127308;23;20385;-80
2022/12/28 13:48:00;;;;;;;1.10;1.10;;;12.60;56.20;;;;;;6151799;23;20378;-78
2022/12/28 13:50:31;;;;;;;1.40;1.30;;;12.70;56.10;;;;;;6126595;23;20392;-78
2022/12/28 13:53:07;;;;;;;1.77;1.67;;;12.80;56.50;;;;;;6125054;23;20706;-79
2022/12/28 13:55:42;;;;;;;1.95;1.85;;;12.50;58.20;;;;;;6123041;23;20382;-79
2022/12/28 13:58:14;;;;;;;1.60;1.50;;;12.10;60.20;;;;;;6150361;23;20389;-79
2022/12/28 14:00:50;;;;;;;2.35;2.20;;;12.20;60.40;;;;;;6151482;23;20397;-78
2022/12/28 14:03:18;;;;;;;1.80;1.70;;;12.20;61.70;;;;;;6124985;23;20441;-78
2022/12/28 14:05:49;;;;;;;1.40;1.40;;;12.30;62.00;;;;;;6126098;23;20418;-79
2022/12/28 14:08:16;;;;;;;1.35;1.25;;;12.30;61.70;;;;;;6125736;23;20374;-79
2022/12/28 14:10:46;;;;;;;1.52;1.42;;;12.20;62.20;;;;;;6152904;23;20370;-79
2022/12/28 14:13:16;;;;;;;2.10;2.00;;;12.30;62.50;;;;;;6125012;23;20409;-78
2022/12/28 14:15:43;;;;;;;2.15;1.95;;;12.20;63.20;;;;;;6150657;23;20405;-79
2022/12/28 14:18:14;;;;;;;2.55;2.45;;;12.10;63.70;;;;;;6124474;23;20416;-79
2022/12/28 14:21:00;;;;;;;1.93;1.83;;;11.90;63.20;;;;;;6125621;23;20435;-79
2022/12/28 14:23:30;;;;;;;2.58;2.38;;;11.90;64.40;;;;;;6149547;23;20382;-79
2022/12/28 14:26:00;;;;;;;1.92;1.83;;;12.00;64.50;;;;;;6101421;23;20738;-78
2022/12/28 14:28:37;;;;;;;2.20;2.10;;;12.00;64.80;;;;;;6124465;23;20377;-79
2022/12/28 14:31:07;;;;;;;1.88;1.77;;;11.90;65.00;;;;;;6124703;23;20382;-79
2022/12/28 14:33:40;;;;;;;2.03;1.92;;;12.20;65.50;;;;;;6126225;23;20441;-79
2022/12/28 14:36:17;;;;;;;1.85;1.75;;;12.20;66.00;;;;;;6125245;23;20381;-79
2022/12/28 14:38:47;;;;;;;2.30;2.20;;;11.90;68.30;;;;;;6125578;23;20376;-78
2022/12/28 14:41:21;;;;;;;2.20;2.03;;;11.60;69.90;;;;;;6125278;23;20374;-78
2022/12/28 14:44:01;;;;;;;3.25;3.05;;;11.60;71.50;;;;;;6151164;23;20374;-79
2022/12/28 14:46:28;;;;;;;2.50;2.40;;;11.40;73.30;;;;;;6124717;23;20373;-79
2022/12/28 14:48:55;;;;;;;2.90;2.70;;;11.30;74.80;;;;;;6151060;23;20378;-78
2022/12/28 14:51:30;;;;;;;2.05;1.95;;;11.20;75.50;;;;;;6124774;23;20956;-78
2022/12/28 14:54:10;;;;;;;1.98;1.88;;;11.20;75.30;;;;;;6151941;23;20370;-78
2022/12/28 14:56:39;;;;;;;2.20;2.10;;;11.00;75.00;;;;;;6125901;23;20394;-79
2022/12/28 14:59:17;;;;;;;2.50;2.00;;;10.90;76.90;;;;;;6151771;23;20403;-79
2022/12/28 15:01:45;;;;;;;2.28;2.17;;;10.70;77.40;;;;;;6151267;23;21254;-78
2022/12/28 15:04:34;;;;;;;2.50;2.30;;;10.70;77.90;;;;;;6151895;23;20378;-79
2022/12/28 15:07:05;;;;;;;2.30;2.20;;;10.70;78.20;;;;;;6124820;23;20377;-78
2022/12/28 15:09:32;;;;;;;2.67;2.57;;;10.60;78.70;;;;;;6151571;23;20503;-78
2022/12/28 15:12:19;;;;;;;2.80;2.70;;;10.50;79.50;;;;;;6150113;23;20453;-77
2022/12/28 15:14:47;;;;;;;2.53;2.33;;;10.50;80.20;;;;;;6124632;23;20375;-79
2022/12/28 15:17:14;;;;;;;2.83;2.72;;;10.40;80.60;;;;;;6126233;23;20370;-79
2022/12/28 15:19:44;;;;;;;3.10;2.90;;;10.40;81.10;;;;;;6125003;23;20384;-78
2022/12/28 15:22:12;;;;;;;2.50;2.40;;;10.40;80.80;;;;;;6152067;23;20397;-79
2022/12/28 15:24:40;;;;;;;2.67;2.58;;;10.50;79.90;;;;;;6125552;23;20380;-78
2022/12/28 15:27:07;;;;;;;2.80;2.57;;;10.40;80.30;;;;;;6124617;23;20370;-77
2022/12/28 15:29:34;;;;;;;2.88;2.67;;;10.40;80.80;;;;;;6151875;23;20378;-78
2022/12/28 15:32:21;;;;;;;2.40;2.30;;;10.40;80.30;;;;;;6129342;23;20477;-78
2022/12/28 15:34:48;;;;;;;2.33;2.22;;;10.40;79.80;;;;;;6151692;23;20378;-77
2022/12/28 15:37:14;;;;;;;2.30;2.20;;;10.40;79.50;;;;;;6124278;23;20457;-78
2022/12/28 15:39:41;;;;;;;2.50;2.35;;;10.40;79.30;;;;;;6151716;23;20370;-78
2022/12/28 15:42:08;;;;;;;2.33;2.22;;;10.30;79.80;;;;;;6147941;23;20711;-78
2022/12/28 15:44:35;;;;;;;3.45;3.25;;;10.20;79.90;;;;;;6151245;23;20425;-78
2022/12/28 15:47:02;;;;;;;4.73;4.43;;;10.10;75.00;;;;;;6123550;23;20824;-77
2022/12/28 15:49:29;;;;;;;5.20;4.90;;;10.00;73.30;;;;;;6151236;23;20440;-78
2022/12/28 15:51:56;;;;;;;5.13;4.72;;;9.90;70.40;;;;;;6151456;23;20452;-78
2022/12/28 15:54:22;;;;;;;4.00;3.70;;;9.80;66.90;;;;;;6124506;23;20394;-77
2022/12/28 15:56:54;;;;;;;2.80;2.60;;;9.60;63.90;;;;;;6123867;23;20453;-78
2022/12/28 15:59:22;;;;;;;1.98;1.88;;;9.50;64.90;;;;;;6124202;23;20398;-77
2022/12/28 16:01:49;;;;;;;2.05;1.95;;;9.30;64.70;;;;;;6124671;23;20369;-77
2022/12/28 16:04:17;;;;;;;2.05;1.95;;;9.00;64.20;;;;;;6150003;23;20707;-78
2022/12/28 16:06:43;;;;;;;2.07;1.97;;;8.90;65.40;;;;;;6149444;23;20405;-77
2022/12/28 16:09:12;;;;;;;1.77;1.67;;;8.80;65.50;;;;;;6120806;23;20386;-77
2022/12/28 16:11:40;;;;;;;1.90;1.80;;;8.70;65.30;;;;;;6148182;23;20378;-77
2022/12/28 16:14:13;;;;;;;2.17;1.98;;;8.70;64.40;;;;;;6123720;23;20382;-77
2022/12/28 16:16:40;;;;;;;2.10;2.00;;;8.70;63.50;;;;;;6124924;23;20378;-78
2022/12/28 16:19:10;;;;;;;2.50;2.30;;;8.60;63.30;;;;;;6123540;23;20711;-78
2022/12/28 16:21:37;;;;;;;2.40;2.20;;;8.60;62.70;;;;;;6125291;23;20379;-77
2022/12/28 16:24:05;;;;;;;2.60;2.40;;;8.50;61.40;;;;;;6124078;23;20829;-77
2022/12/28 16:26:32;;;;;;;2.72;2.53;;;8.50;60.30;;;;;;6126880;23;20421;-77
2022/12/28 16:28:59;;;;;;;2.33;2.23;;;8.40;60.30;;;;;;6152761;23;20703;-77
2022/12/28 16:31:32;;;;;;;2.67;2.50;;;8.40;60.10;;;;;;6152116;23;20699;-78
2022/12/28 16:34:02;;;;;;;2.47;2.33;;;8.30;59.20;;;;;;6125741;23;20838;-77
2022/12/28 16:36:29;;;;;;;2.50;2.30;;;8.20;58.50;;;;;;6151560;23;20377;-78
2022/12/28 16:38:57;;;;;;;2.30;2.20;;;8.20;58.30;;;;;;6126286;23;20420;-78
2022/12/28 16:41:24;;;;;;;2.65;2.55;;;8.10;59.70;;;;;;6125357;23;20452;-77
2022/12/28 16:44:02;;;;;;;2.60;2.45;;;8.00;59.90;;;;;;6152192;23;20378;-78
2022/12/28 16:46:29;;;;;;;2.33;2.22;;;8.00;60.80;;;;;;6143821;23;20370;-77
2022/12/28 16:49:00;;;;;;;2.85;2.65;;;8.00;61.30;;;;;;6151343;23;20378;-78
2022/12/28 16:51:28;;;;;;;2.80;2.70;;;8.00;61.50;;;;;;6125106;23;20370;-77
2022/12/28 16:53:56;;;;;;;2.50;2.40;;;7.90;62.80;;;;;;6126336;23;20382;-78
2022/12/28 16:56:23;;;;;;;3.08;2.88;;;7.90;63.60;;;;;;6148307;23;20393;-77
2022/12/28 16:58:55;;;;;;;4.10;3.80;;;7.90;63.80;;;;;;6147991;23;20437;-78
2022/12/28 17:01:22;;;;;;;3.85;3.65;;;7.80;62.40;;;;;;6149211;23;20437;-77
2022/12/28 17:03:50;;;;;;;3.25;3.05;;;7.80;61.80;;;;;;6125986;23;20687;-78
2022/12/28 17:06:17;;;;;;;3.03;2.83;;;7.80;61.20;;;;;;6149871;23;20412;-77
2022/12/28 17:08:44;;;;;;;3.60;3.30;;;7.80;61.20;;;;;;6123869;23;20378;-80
2022/12/28 17:11:12;;;;;;;3.03;2.83;;;7.80;61.00;;;;;;6124864;23;20472;-77
2022/12/28 17:13:39;;;;;;;3.10;2.90;;;7.80;60.60;;;;;;6124945;23;20437;-78
2022/12/28 17:16:06;;;;;;;3.25;3.05;;;7.80;60.60;;;;;;6123719;23;20377;-77
2022/12/28 17:18:33;;;;;;;2.90;2.70;;;7.70;61.00;;;;;;6122960;23;20382;-77
2022/12/28 17:21:01;;;;;;;2.55;2.38;;;7.70;60.80;;;;;;6123990;23;20486;-78
2022/12/28 17:23:32;;;;;;;2.22;2.13;;;7.70;61.00;;;;;;6152447;23;20430;-77
2022/12/28 17:25:59;;;;;;;2.70;2.42;;;7.70;60.90;;;;;;6152695;23;20374;-77
2022/12/28 17:28:28;;;;;;;2.45;2.35;;;7.70;61.20;;;;;;6126257;23;20761;-77
2022/12/28 17:31:13;;;;;;;2.80;2.60;;;7.60;61.40;;;;;;6126467;23;20386;-78
2022/12/28 17:33:45;;;;;;;2.70;2.50;;;7.60;62.30;;;;;;6125638;23;20374;-77
2022/12/28 17:36:12;;;;;;;2.45;2.30;;;7.60;62.80;;;;;;6126092;23;20382;-77
2022/12/28 17:38:40;;;;;;;2.40;2.30;;;7.50;62.60;;;;;;6125926;23;20378;-77
2022/12/28 17:41:14;;;;;;;2.75;2.55;;;7.60;62.90;;;;;;6152408;23;20405;-78
2022/12/28 17:43:48;;;;;;;2.88;2.67;;;7.50;63.10;;;;;;6124965;23;20374;-78
2022/12/28 17:46:17;;;;;;;2.35;2.17;;;7.50;62.00;;;;;;6151805;23;20421;-78
2022/12/28 17:48:44;;;;;;;2.13;2.03;;;7.50;62.20;;;;;;6149137;23;20404;-77
2022/12/28 17:51:11;;;;;;;2.25;2.15;;;7.50;62.40;;;;;;6126233;23;20383;-77
2022/12/28 17:53:40;;;;;;;2.63;2.53;;;7.50;62.10;;;;;;6123596;23;20408;-77
2022/12/28 17:56:13;;;;;;;2.40;2.20;;;7.50;61.70;;;;;;6125054;23;20381;-78
2022/12/28 17:58:42;;;;;;;2.83;2.58;;;7.40;62.30;;;;;;6124585;23;20390;-78
2022/12/28 18:01:10;;;;;;;2.80;2.60;;;7.40;62.00;;;;;;6126435;23;20425;-78
2022/12/28 18:03:37;;;;;;;3.13;2.83;;;7.40;61.70;;;;;;6150312;23;20378;-78
2022/12/28 18:06:05;;;;;;;3.08;2.88;;;7.40;61.70;;;;;;6125648;23;20378;-78
2022/12/28 18:08:32;;;;;;;2.70;2.60;;;7.40;61.70;;;;;;6124734;23;20450;-77
2022/12/28 18:10:59;;;;;;;2.17;2.05;;;7.30;62.50;;;;;;6125645;23;20707;-77
2022/12/28 18:13:26;;;;;;;2.67;2.47;;;7.30;63.30;;;;;;6149559;23;20382;-77
2022/12/28 18:15:53;;;;;;;2.40;2.30;;;7.30;63.30;;;;;;6148257;23;20377;-77
2022/12/28 18:18:20;;;;;;;2.33;2.20;;;7.30;63.40;;;;;;6151266;23;20770;-78
2022/12/28 18:20:58;;;;;;;2.63;2.42;;;7.30;63.60;;;;;;6125259;23;20370;-77
2022/12/28 18:23:27;;;;;;;2.42;2.33;;;7.30;63.70;;;;;;6124797;23;20858;-77
2022/12/28 18:26:13;;;;;;;2.35;2.25;;;7.30;63.20;;;;;;6151316;23;20370;-78
2022/12/28 18:28:39;;;;;;;2.50;2.30;;;7.30;63.70;;;;;;6124752;23;20389;-77
2022/12/28 18:31:08;;;;;;;2.07;1.97;;;7.30;62.60;;;;;;6151554;23;20412;-78
2022/12/28 18:33:35;;;;;;;2.38;2.17;;;7.20;62.70;;;;;;6124432;23;20699;-77
2022/12/28 18:36:05;;;;;;;2.53;2.33;;;7.20;62.40;;;;;;6126046;23;20389;-77
2022/12/28 18:38:34;;;;;;;2.08;1.98;;;7.20;62.50;;;;;;6122217;23;20887;-78
2022/12/28 18:41:01;;;;;;;2.20;2.10;;;7.20;62.50;;;;;;6148135;23;20818;-77
2022/12/28 18:43:28;;;;;;;2.30;2.20;;;7.10;62.50;;;;;;6123637;23;20410;-77
2022/12/28 18:46:00;;;;;;;1.92;1.83;;;7.10;61.90;;;;;;6150502;23;20452;-78
2022/12/28 18:48:28;;;;;;;1.93;1.83;;;7.10;61.50;;;;;;6124003;23;20744;-77
2022/12/28 18:51:02;;;;;;;2.13;2.03;;;7.10;62.30;;;;;;6150762;23;20374;-77
2022/12/28 18:53:30;;;;;;;2.05;1.90;;;7.10;62.00;;;;;;6150148;23;20845;-77
2022/12/28 18:56:03;;;;;;;2.10;2.00;;;7.00;61.70;;;;;;6124608;23;20433;-77
2022/12/28 18:58:32;;;;;;;1.97;1.87;;;7.00;61.40;;;;;;6124178;23;20911;-76
2022/12/28 19:01:17;;;;;;;2.20;2.00;;;7.00;61.10;;;;;;6124578;23;20405;-77
2022/12/28 19:04:06;;;;;;;1.70;1.60;;;7.00;61.30;;;;;;6149964;23;20797;-77
2022/12/28 19:06:34;;;;;;;1.75;1.65;;;6.90;61.70;;;;;;6124636;23;20402;-77
2022/12/28 19:09:02;;;;;;;1.70;1.60;;;6.90;60.50;;;;;;6123480;23;20819;-77
2022/12/28 19:11:30;;;;;;;1.85;1.75;;;6.90;60.50;;;;;;6124850;23;20378;-77
2022/12/28 19:13:57;;;;;;;1.60;1.50;;;6.90;60.50;;;;;;6124106;23;20378;-77
2022/12/28 19:16:24;;;;;;;1.60;1.50;;;6.90;60.10;;;;;;6150894;23;20439;-77
2022/12/28 19:18:58;;;;;;;1.60;1.50;;;6.90;60.10;;;;;;6149541;23;20390;-77
2022/12/28 19:21:36;;;;;;;1.85;1.75;;;6.90;59.70;;;;;;6151973;23;20445;-78
2022/12/28 19:24:14;;;;;;;1.60;1.50;;;6.90;59.60;;;;;;6149952;23;20433;-79
2022/12/28 19:26:42;;;;;;;1.70;1.60;;;6.80;59.80;;;;;;6123984;23;20378;-78
2022/12/28 19:29:11;;;;;;;1.60;1.50;;;6.70;60.10;;;;;;6124901;23;20396;-79
2022/12/28 19:31:38;;;;;;;1.67;1.57;;;6.60;60.40;;;;;;6150583;23;20503;-79
2022/12/28 19:34:05;;;;;;;1.65;1.55;;;6.70;60.20;;;;;;6149022;23;20818;-80
2022/12/28 19:36:32;;;;;;;1.80;1.70;;;6.60;60.50;;;;;;6147765;23;20716;-79
2022/12/28 19:38:59;;;;;;;1.60;1.50;;;6.60;61.10;;;;;;6123391;23;20444;-79
2022/12/28 19:41:25;;;;;;;1.60;1.50;;;6.50;61.30;;;;;;6125201;23;20436;-79
2022/12/28 19:43:53;;;;;;;1.80;1.70;;;6.50;61.40;;;;;;6123924;23;20441;-79
2022/12/28 19:46:29;;;;;;;1.70;1.60;;;6.40;62.10;;;;;;6124670;23;20382;-79
2022/12/28 19:48:58;;;;;;;1.52;1.42;;;6.30;62.40;;;;;;6124131;23;20382;-79
2022/12/28 19:51:25;;;;;;;1.67;1.58;;;6.20;62.30;;;;;;6150486;23;20385;-79
2022/12/28 19:53:57;;;;;;;1.92;1.83;;;6.30;62.40;;;;;;6148337;23;20719;-79
2022/12/28 19:56:24;;;;;;;1.83;1.73;;;6.30;63.00;;;;;;6123588;23;20889;-79
2022/12/28 19:58:51;;;;;;;1.63;1.53;;;6.30;62.70;;;;;;6122428;23;20773;-78
2022/12/28 20:01:24;;;;;;;1.70;1.60;;;6.30;62.70;;;;;;6149265;23;20380;-79
2022/12/28 20:03:53;;;;;;;1.73;1.63;;;6.40;62.50;;;;;;6148429;23;20457;-79
2022/12/28 20:06:24;;;;;;;1.60;1.50;;;6.30;63.00;;;;;;6123389;23;20393;-79
2022/12/28 20:08:53;;;;;;;1.67;1.58;;;6.30;63.20;;;;;;6148509;23;20763;-79
2022/12/28 20:11:21;;;;;;;1.60;1.50;;;6.30;63.10;;;;;;6123698;23;20381;-79